Time;durP1;ratioP1;P1;durP2;ratioP2;P2;SDS_P1;SDS_P2;PMS_P1;PMS_P2;Temp;Humidity;BMP_temperature;BMP_pressure;BME280_temperature;BME280_humidity;BME280_pressure;Samples;Min_cycle;Max_cycle;Signal;HPM_P1;HPM_P2
2022/08/24 00:01:51;;;;;;;1.80;1.05;;;;;;;19.40;68.86;100386.25;5050987;28;20083;-46
2022/08/24 00:04:38;;;;;;;2.70;1.33;;;;;;;19.43;68.93;100391.06;5051935;28;20041;-48
2022/08/24 00:07:26;;;;;;;3.13;1.73;;;;;;;19.46;69.21;100395.03;5051164;28;20091;-47
2022/08/24 00:10:14;;;;;;;2.35;0.88;;;;;;;19.38;69.29;100395.06;5046465;28;20045;-46
2022/08/24 00:13:01;;;;;;;4.05;1.20;;;;;;;19.21;69.97;100389.56;5045971;28;20616;-49
2022/08/24 00:15:49;;;;;;;2.15;0.95;;;;;;;19.11;70.46;100373.63;5054800;28;20471;-47
2022/08/24 00:18:37;;;;;;;2.05;1.20;;;;;;;19.07;70.90;100379.25;5055071;28;20041;-46
2022/08/24 00:21:24;;;;;;;1.30;0.95;;;;;;;18.97;71.47;100368.91;5055856;28;20060;-47
2022/08/24 00:24:11;;;;;;;4.55;1.30;;;;;;;18.94;72.01;100369.72;5055115;28;20128;-49
2022/08/24 00:26:59;;;;;;;3.72;1.05;;;;;;;18.91;72.24;100380.94;5036385;28;20472;-46
2022/08/24 00:29:26;;;;;;;3.45;1.10;;;;;;;18.85;72.50;100377.78;5036350;28;20045;-45
2022/08/24 00:31:53;;;;;;;3.63;1.38;;;;;;;18.87;72.81;100380.19;5036257;28;20553;-48
2022/08/24 00:34:40;;;;;;;2.67;1.40;;;;;;;18.88;72.58;100381.81;5037088;28;20486;-46
2022/08/24 00:37:45;;;;;;;3.47;1.30;;;;;;;18.85;72.70;100377.78;5053381;28;20052;-44
2022/08/24 00:40:38;;;;;;;2.78;1.85;;;;;;;18.83;73.12;100368.97;5053197;28;20045;-45
2022/08/24 00:43:25;;;;;;;1.95;1.27;;;;;;;18.80;73.07;100367.78;5053620;28;20097;-45
2022/08/24 00:46:22;;;;;;;3.40;1.45;;;;;;;18.76;73.50;100369.84;5055326;28;20129;-44
2022/08/24 00:49:36;;;;;;;1.98;1.10;;;;;;;18.70;73.66;100365.84;5053800;28;20058;-45
2022/08/24 00:52:31;;;;;;;2.53;1.10;;;;;;;18.61;73.77;100367.53;5054761;28;20170;-43
2022/08/24 00:55:44;;;;;;;2.47;1.08;;;;;;;18.61;73.97;100368.31;5051494;28;20507;-49
2022/08/24 00:58:39;;;;;;;2.55;1.80;;;;;;;18.57;73.72;100370.34;5046152;28;20538;-43
2022/08/24 01:01:30;;;;;;;1.00;0.90;;;;;;;18.54;74.04;100373.94;5053155;28;20509;-47
2022/08/24 01:04:20;;;;;;;3.58;1.23;;;;;;;18.45;74.24;100373.59;5054327;28;20139;-45
2022/08/24 01:06:48;;;;;;;0.95;0.90;;;;;;;18.39;74.33;100372.41;5055384;28;20430;-44
2022/08/24 01:09:16;;;;;;;1.33;0.82;;;;;;;18.34;74.91;100367.22;5055191;28;20045;-43
2022/08/24 01:11:45;;;;;;;2.67;0.88;;;;;;;18.37;74.91;100369.22;5052537;28;20048;-43
2022/08/24 01:14:32;;;;;;;1.25;0.93;;;;;;;18.33;74.95;100364.81;5051773;28;20477;-48
2022/08/24 01:20:26;;;;;;;3.50;0.95;;;;;;;18.31;75.12;100368.03;5054080;28;20052;-43
2022/08/24 01:23:25;;;;;;;1.23;0.90;;;;;;;18.30;75.25;100374.81;5052135;28;20051;-47
2022/08/24 01:26:46;;;;;;;1.15;1.00;;;;;;;18.25;75.48;100369.66;5052707;28;20056;-45
2022/08/24 01:29:34;;;;;;;1.40;0.87;;;;;;;18.21;75.49;100374.47;5050635;28;20048;-45
2022/08/24 01:32:23;;;;;;;1.13;1.02;;;;;;;18.15;75.63;100367.69;5051040;28;20298;-46
2022/08/24 01:35:11;;;;;;;1.23;1.15;;;;;;;18.11;75.83;100381.69;5050183;28;20145;-44
2022/08/24 01:38:03;;;;;;;2.15;0.90;;;;;;;18.05;76.02;100379.72;5053715;28;20052;-45
2022/08/24 01:40:56;;;;;;;1.70;1.40;;;;;;;17.99;76.27;100381.34;5039510;28;20048;-46
2022/08/24 01:49:04;;;;;;;3.28;1.42;;;;;;;17.86;76.58;100380.16;5053140;28;20064;-43
2022/08/24 01:51:32;;;;;;;1.98;1.75;;;;;;;17.71;76.75;100387.81;5041383;28;20041;-43
2022/08/24 01:54:01;;;;;;;1.13;1.10;;;;;;;17.55;76.84;100407.78;5052505;28;20040;-44
2022/08/24 01:56:30;;;;;;;1.23;0.68;;;;;;;17.41;77.07;100410.59;5052860;28;20044;-43
2022/08/24 01:58:59;;;;;;;1.55;0.63;;;;;;;17.36;77.14;100415.78;5053552;28;20395;-45
2022/08/24 02:01:28;;;;;;;0.60;0.60;;;;;;;17.26;77.32;100414.53;5051388;28;20045;-43
2022/08/24 02:03:59;;;;;;;2.47;0.60;;;;;;;17.15;77.08;100410.16;5051846;28;20070;-49
2022/08/24 02:06:26;;;;;;;1.38;0.38;;;;;;;17.13;76.96;100413.34;5047428;28;20542;-45
2022/08/24 02:08:53;;;;;;;0.63;0.57;;;;;;;17.07;76.72;100411.34;5053149;28;20095;-43
2022/08/24 02:11:19;;;;;;;1.67;0.40;;;;;;;17.05;76.83;100417.31;5052051;28;20549;-43
2022/08/24 02:13:46;;;;;;;0.77;0.55;;;;;;;17.04;76.68;100404.53;5050801;28;20048;-49
2022/08/24 02:16:13;;;;;;;0.88;0.50;;;;;;;17.08;76.60;100410.16;5051728;28;20098;-45
2022/08/24 02:18:41;;;;;;;2.55;0.60;;;;;;;17.06;76.74;100418.94;5050103;28;20051;-49
2022/08/24 02:21:09;;;;;;;0.88;0.50;;;;;;;17.00;77.01;100414.91;5053100;28;20426;-46
2022/08/24 02:23:38;;;;;;;1.15;0.52;;;;;;;16.95;77.24;100412.50;5051671;28;20056;-46
2022/08/24 02:26:07;;;;;;;3.38;0.50;;;;;;;16.94;77.33;100422.09;5052812;28;20088;-43
2022/08/24 02:28:38;;;;;;;0.95;0.38;;;;;;;16.88;76.64;100415.28;5052699;28;20088;-43
2022/08/24 02:31:06;;;;;;;0.50;0.50;;;;;;;16.81;76.52;100409.69;5049661;28;20080;-45
2022/08/24 02:33:37;;;;;;;0.98;0.40;;;;;;;16.73;76.48;100403.25;5051717;28;20060;-44
2022/08/24 02:36:07;;;;;;;2.30;0.40;;;;;;;16.71;76.60;100402.84;5051479;28;20098;-43
2022/08/24 02:38:53;;;;;;;0.85;0.35;;;;;;;16.65;76.34;100406.44;5052833;28;20047;-45
2022/08/24 02:41:20;;;;;;;1.20;0.40;;;;;;;16.57;76.43;100402.84;5052781;28;20102;-45
2022/08/24 02:43:47;;;;;;;1.25;0.30;;;;;;;16.44;76.74;100416.31;5052437;28;20036;-44
2022/08/24 02:46:18;;;;;;;0.40;0.40;;;;;;;16.38;76.74;100420.69;5051109;28;20045;-45
2022/08/24 02:48:46;;;;;;;3.10;0.50;;;;;;;16.38;76.66;100417.09;5050829;28;20047;-44
2022/08/24 02:51:33;;;;;;;0.70;0.70;;;;;;;16.38;76.67;100417.91;5052220;28;20127;-43
2022/08/24 02:54:12;;;;;;;0.50;0.40;;;;;;;16.42;76.41;100429.88;5052657;28;20479;-51
2022/08/24 02:56:39;;;;;;;0.90;0.60;;;;;;;16.36;76.43;100430.66;5050914;28;20037;-50
2022/08/24 02:59:06;;;;;;;0.60;0.50;;;;;;;16.29;76.26;100422.22;5051838;28;20052;-49
2022/08/24 03:47:49;;;;;;;1.90;0.93;;;;;;;16.31;76.32;100434.59;1647152;26;20046;-46
2022/08/24 03:54:47;;;;;;;1.42;0.50;;;;;;;16.21;76.43;100446.53;5035830;28;20053;-45
2022/08/24 03:57:35;;;;;;;2.85;0.70;;;;;;;16.19;76.59;100448.09;5036701;28;20168;-46
2022/08/24 04:00:22;;;;;;;1.75;0.60;;;;;;;16.13;76.72;100447.66;5031152;28;20155;-50
2022/08/24 04:03:10;;;;;;;1.15;0.77;;;;;;;16.11;77.02;100441.69;5035500;28;20038;-47
2022/08/24 04:05:39;;;;;;;0.98;0.50;;;;;;;16.04;77.05;100446.44;5023246;28;20495;-48
2022/08/24 04:08:05;;;;;;;1.23;0.60;;;;;;;16.01;77.35;100453.59;5035389;28;20495;-45
2022/08/24 04:10:33;;;;;;;1.92;0.70;;;;;;;16.04;77.12;100454.81;5032817;28;20080;-45
2022/08/24 04:21:25;;;;;;;1.70;0.60;;;;;;;15.91;77.20;100473.88;5024541;28;20069;-46
2022/08/24 04:24:12;;;;;;;4.57;0.90;;;;;;;15.95;77.21;100471.88;5035598;28;20062;-47
2022/08/24 04:26:59;;;;;;;1.35;1.25;;;;;;;15.90;77.43;100480.63;5034877;28;20048;-46
2022/08/24 04:29:47;;;;;;;5.25;2.28;;;;;;;15.86;77.28;100474.19;5024642;28;20073;-47
2022/08/24 04:32:34;;;;;;;2.35;1.10;;;;;;;15.84;77.35;100462.63;5030539;28;20139;-48
2022/08/24 04:35:21;;;;;;;3.97;1.15;;;;;;;15.81;77.50;100477.34;5033994;28;20061;-45
2022/08/24 04:38:08;;;;;;;3.03;1.42;;;;;;;15.77;77.65;100487.72;5034565;28;20179;-47
2022/08/24 04:40:56;;;;;;;2.47;1.05;;;;;;;15.73;77.94;100495.22;5036867;28;20172;-46
2022/08/24 04:43:48;;;;;;;1.85;1.05;;;;;;;15.72;77.82;100483.28;5034721;28;20050;-45
2022/08/24 04:46:35;;;;;;;5.82;1.17;;;;;;;15.70;78.14;100496.81;5036039;28;20402;-46
2022/08/24 04:49:22;;;;;;;1.85;1.10;;;;;;;15.70;78.00;100496.81;5032897;28;20075;-48
2022/08/24 04:52:10;;;;;;;3.70;1.30;;;;;;;15.72;78.03;100499.22;5035114;28;20127;-45
2022/08/24 04:54:57;;;;;;;3.88;1.20;;;;;;;15.72;78.04;100500.03;5030575;28;20052;-45
2022/08/24 04:57:44;;;;;;;1.67;1.17;;;;;;;15.74;77.89;100506.03;5027753;28;20103;-46
2022/08/24 05:00:31;;;;;;;1.67;1.17;;;;;;;15.70;78.01;100498.81;5033390;28;20107;-45
2022/08/24 05:03:18;;;;;;;4.40;1.10;;;;;;;15.69;78.19;100508.38;5030579;28;20495;-45
2022/08/24 05:06:05;;;;;;;1.90;1.45;;;;;;;15.59;78.38;100515.47;5023320;28;20131;-47
2022/08/24 05:08:53;;;;;;;2.55;1.00;;;;;;;15.55;78.58;100525.78;5027772;28;20069;-49
2022/08/24 05:11:40;;;;;;;3.38;0.90;;;;;;;15.52;78.57;100518.19;5027505;28;20071;-46
2022/08/24 05:14:35;;;;;;;3.38;1.05;;;;;;;15.53;78.52;100532.94;5029021;28;20045;-45
2022/08/24 05:17:23;;;;;;;0.95;0.75;;;;;;;15.53;78.71;100528.16;5031712;28;20038;-45
2022/08/24 05:20:11;;;;;;;2.75;1.08;;;;;;;15.50;78.82;100534.50;5033093;28;21222;-46
2022/08/24 05:22:58;;;;;;;2.42;1.55;;;;;;;15.50;78.74;100539.28;5029840;28;20135;-49
2022/08/24 05:25:50;;;;;;;3.70;1.10;;;;;;;15.47;78.75;100551.19;5028223;28;20050;-48
2022/08/24 05:28:38;;;;;;;1.73;1.40;;;;;;;15.43;78.96;100555.91;5026706;28;20525;-45
2022/08/24 05:31:28;;;;;;;5.43;2.03;;;;;;;15.38;79.25;100553.47;5030259;28;20128;-46
2022/08/24 05:34:17;;;;;;;1.92;1.10;;;;;;;15.33;79.44;100556.63;5021684;28;20561;-45
2022/08/24 05:36:44;;;;;;;2.00;0.90;;;;;;;15.36;79.54;100564.19;5017970;28;20117;-45
2022/08/24 05:39:13;;;;;;;2.08;1.15;;;;;;;15.36;79.48;100559.41;5031676;28;20042;-46
2022/08/24 05:41:43;;;;;;;4.20;1.23;;;;;;;15.35;79.62;100560.63;5027730;28;20080;-45
2022/08/24 05:44:13;;;;;;;3.95;1.23;;;;;;;15.38;79.73;100564.63;5021683;28;20056;-45
2022/08/24 05:46:39;;;;;;;3.60;1.40;;;;;;;15.37;79.70;100569.41;5030672;28;20099;-46
2022/08/24 05:49:07;;;;;;;2.28;1.23;;;;;;;15.38;79.63;100565.41;5031532;28;20139;-47
2022/08/24 05:51:34;;;;;;;1.67;1.00;;;;;;;15.37;79.66;100574.19;5032220;28;20041;-46
2022/08/24 05:54:03;;;;;;;1.23;1.08;;;;;;;15.37;79.90;100579.75;5032333;28;20041;-48
2022/08/24 05:56:30;;;;;;;3.50;1.20;;;;;;;15.39;79.82;100585.75;5029840;28;20037;-45
2022/08/24 05:58:58;;;;;;;2.70;1.25;;;;;;;15.43;79.72;100594.97;5034121;28;20041;-45
2022/08/24 06:01:26;;;;;;;6.07;1.55;;;;;;;15.43;79.88;100589.41;5033514;28;20049;-51
2022/08/24 06:03:54;;;;;;;3.45;1.80;;;;;;;15.42;79.94;100601.72;5033225;28;20042;-52
2022/08/24 06:06:22;;;;;;;3.42;1.17;;;;;;;15.41;79.83;100608.50;5032856;28;20101;-50
2022/08/24 06:08:51;;;;;;;1.63;1.13;;;;;;;15.43;79.93;100611.72;5032456;28;20372;-48
2022/08/24 06:11:25;;;;;;;4.95;1.77;;;;;;;15.40;80.04;100609.69;5031874;28;20068;-48
2022/08/24 06:14:02;;;;;;;5.40;1.27;;;;;;;15.43;79.85;100603.34;5031822;28;20193;-45
2022/08/24 06:16:38;;;;;;;4.47;1.10;;;;;;;15.41;79.97;100602.94;5030004;28;20056;-46
2022/08/24 06:19:07;;;;;;;6.93;1.48;;;;;;;15.36;80.11;100617.19;5032827;28;20056;-45
2022/08/24 06:21:33;;;;;;;4.03;1.20;;;;;;;15.33;80.37;100629.91;5033027;28;20495;-47
2022/08/24 06:24:00;;;;;;;2.78;1.25;;;;;;;15.38;80.41;100623.22;5030311;28;20041;-47
2022/08/24 06:29:17;;;;;;;1.60;0.80;;;;;;;15.42;80.11;100644.38;5035049;28;20353;-45
2022/08/24 06:32:04;;;;;;;2.75;1.10;;;;;;;15.45;79.95;100649.22;5024988;28;20050;-45
2022/08/24 06:39:03;;;;;;;1.50;1.35;;;;;;;15.47;80.00;100640.47;5030707;28;20041;-46
2022/08/24 06:41:51;;;;;;;5.72;1.00;;;;;;;15.52;79.91;100638.16;5027985;28;20045;-45
2022/08/24 06:44:18;;;;;;;2.75;1.10;;;;;;;15.59;80.14;100649.41;5039681;28;20037;-48
2022/08/24 06:46:45;;;;;;;4.20;1.20;;;;;;;15.66;80.09;100654.25;5030780;28;20049;-48
2022/08/24 06:49:12;;;;;;;4.63;1.00;;;;;;;15.76;80.18;100659.16;5025594;28;20041;-45
2022/08/24 06:51:39;;;;;;;2.38;1.00;;;;;;;15.77;80.10;100657.97;5030665;28;20046;-44
2022/08/24 06:54:07;;;;;;;2.70;1.00;;;;;;;15.80;79.93;100658.03;5031530;28;20446;-48
2022/08/24 06:56:36;;;;;;;2.05;0.73;;;;;;;15.85;79.80;100668.03;5013916;28;20103;-46
2022/08/24 06:59:03;;;;;;;3.30;1.20;;;;;;;15.97;79.70;100664.16;5030729;28;20129;-45
2022/08/24 07:01:30;;;;;;;2.25;1.25;;;;;;;16.04;79.77;100673.44;5030010;28;20123;-45
2022/08/24 07:03:57;;;;;;;4.55;1.48;;;;;;;16.16;79.60;100673.13;5009579;28;20450;-47
2022/08/24 07:06:24;;;;;;;4.45;1.33;;;;;;;16.24;79.24;100669.22;5010575;28;20046;-45
2022/08/24 07:08:52;;;;;;;3.63;0.80;;;;;;;16.24;78.96;100660.03;5029371;28;20095;-45
2022/08/24 07:11:21;;;;;;;1.05;0.95;;;;;;;16.25;78.96;100670.03;5029727;28;20040;-51
2022/08/24 07:13:48;;;;;;;5.22;1.00;;;;;;;16.26;78.87;100658.47;5028499;28;20041;-44
2022/08/24 07:16:19;;;;;;;9.52;1.13;;;;;;;16.28;78.59;100663.69;5030960;28;20434;-44
2022/08/24 07:18:46;;;;;;;7.90;1.15;;;;;;;16.28;78.50;100658.09;5029549;28;20142;-44
2022/08/24 07:21:18;;;;;;;2.17;1.00;;;;;;;16.28;78.48;100664.47;5028413;28;20076;-46
2022/08/24 07:23:47;;;;;;;3.35;0.90;;;;;;;16.37;78.19;100666.94;5017261;28;20419;-44
2022/08/24 07:26:21;;;;;;;1.33;1.00;;;;;;;16.48;78.15;100678.22;5035016;28;20045;-44
2022/08/24 07:32:29;;;;;;;5.85;1.67;;;;;;;16.67;77.52;100683.59;5019982;28;20069;-45
2022/08/24 07:35:04;;;;;;;7.57;0.98;;;;;;;16.65;77.41;100683.19;5034758;28;20045;-45
2022/08/24 07:41:24;;;;;;;3.10;0.73;;;;;;;16.70;76.84;100680.03;5028664;28;20045;-45
2022/08/24 07:44:30;;;;;;;4.65;1.88;;;;;;;16.86;76.75;100680.53;5036163;28;20522;-46
2022/08/24 07:55:10;;;;;;;7.45;1.02;;;;;;;17.25;75.98;100701.16;5024160;28;20406;-47
2022/08/24 07:57:54;;;;;;;0.73;0.73;;;;;;;17.33;75.45;100705.59;5023789;28;20041;-46
2022/08/24 08:00:24;;;;;;;2.70;0.60;;;;;;;17.34;75.33;100714.81;5036167;28;20040;-49
2022/08/24 08:06:42;;;;;;;2.67;0.75;;;;;;;17.47;74.92;100728.03;5035555;28;20038;-47
2022/08/24 08:09:09;;;;;;;4.85;0.93;;;;;;;17.51;74.55;100731.69;5036524;28;20052;-47
2022/08/24 08:15:22;;;;;;;3.47;0.68;;;;;;;17.47;73.71;100736.44;5023721;28;20041;-47
2022/08/24 08:17:49;;;;;;;2.03;0.63;;;;;;;17.45;73.28;100729.63;5033803;28;20091;-45
2022/08/24 08:20:22;;;;;;;10.90;1.00;;;;;;;17.50;73.02;100735.66;5032978;28;20045;-46
2022/08/24 08:25:51;;;;;;;1.58;0.50;;;;;;;17.70;72.27;100724.19;4999083;28;20062;-47
2022/08/24 08:28:18;;;;;;;3.70;0.73;;;;;;;17.82;71.83;100724.63;5033597;28;20095;-52
2022/08/24 08:31:00;;;;;;;6.50;0.70;;;;;;;17.85;71.39;100734.25;5015939;28;20499;-46
2022/08/24 08:33:47;;;;;;;5.80;1.00;;;;;;;17.85;71.25;100745.44;5030164;28;20120;-48
2022/08/24 08:36:14;;;;;;;1.60;1.17;;;;;;;17.85;70.65;100759.44;5032099;28;20045;-47
2022/08/24 08:38:53;;;;;;;1.83;0.52;;;;;;;17.77;70.45;100744.63;5034181;28;21017;-46
2022/08/24 08:41:55;;;;;;;2.65;0.60;;;;;;;17.82;70.38;100738.63;5034111;28;20116;-46
2022/08/24 08:44:36;;;;;;;1.85;0.50;;;;;;;17.93;69.84;100747.06;5032675;28;20049;-46
2022/08/24 08:48:02;;;;;;;6.50;0.60;;;;;;;17.97;69.41;100743.13;5032459;28;20168;-46
2022/08/24 08:50:55;;;;;;;4.00;0.60;;;;;;;17.97;69.08;100750.72;5027611;28;20104;-46
2022/08/24 08:53:44;;;;;;;3.45;0.60;;;;;;;17.96;69.00;100751.91;5019547;28;20038;-48
2022/08/24 08:56:58;;;;;;;2.08;0.60;;;;;;;18.00;68.95;100764.72;5031488;28;20560;-47
2022/08/24 08:59:34;;;;;;;3.28;1.42;;;;;;;18.09;68.83;100767.94;5024238;28;20066;-46
2022/08/24 09:02:32;;;;;;;2.35;0.60;;;;;;;18.39;68.39;100762.03;5032371;28;20388;-46
2022/08/24 09:05:38;;;;;;;6.43;0.98;;;;;;;18.55;67.71;100759.69;5013858;28;20060;-47
2022/08/24 09:08:42;;;;;;;3.25;0.50;;;;;;;18.73;66.92;100773.72;5012717;28;20050;-46
2022/08/24 09:11:40;;;;;;;9.90;0.90;;;;;;;18.62;66.29;100762.47;5013037;28;20049;-47
2022/08/24 09:14:22;;;;;;;1.90;0.60;;;;;;;18.54;66.24;100774.91;4996062;28;20129;-51
2022/08/24 09:16:48;;;;;;;5.43;0.55;;;;;;;18.49;66.07;100769.69;5012992;28;20038;-51
2022/08/24 09:19:44;;;;;;;3.50;0.65;;;;;;;18.55;66.09;100775.69;5023588;28;20041;-50
2022/08/24 09:22:17;;;;;;;2.33;0.45;;;;;;;18.72;65.44;100775.72;5028113;28;20050;-49
2022/08/24 09:24:53;;;;;;;2.00;0.45;;;;;;;18.85;65.25;100771.31;5034476;28;20041;-49
2022/08/24 09:27:58;;;;;;;3.65;0.63;;;;;;;18.99;64.83;100764.91;5034706;28;20045;-45
2022/08/24 09:30:32;;;;;;;2.38;0.50;;;;;;;19.13;64.97;100775.31;5014905;28;20054;-45
2022/08/24 09:33:06;;;;;;;4.30;0.90;;;;;;;19.40;64.10;100773.69;5035072;28;20128;-45
2022/08/24 09:35:52;;;;;;;3.90;0.88;;;;;;;19.49;63.26;100768.44;5036010;28;20041;-46
2022/08/24 09:38:57;;;;;;;4.20;0.85;;;;;;;19.51;63.27;100760.44;5030858;28;20108;-44
2022/08/24 09:46:02;;;;;;;6.32;0.80;;;;;;;19.88;62.84;100760.69;5034937;28;20037;-44
2022/08/24 09:49:05;;;;;;;5.63;0.88;;;;;;;20.54;61.43;100758.72;5033821;28;20100;-45
2022/08/24 09:52:17;;;;;;;4.55;1.67;;;;;;;20.76;60.32;100765.00;4981510;28;20056;-44
2022/08/24 09:58:53;;;;;;;3.65;0.50;;;;;;;20.96;59.78;100782.97;4994502;28;20086;-44
2022/08/24 10:01:47;;;;;;;4.38;2.20;;;;;;;20.78;59.56;100768.22;4995994;28;20042;-44
2022/08/24 10:12:16;;;;;;;2.03;0.70;;;;;;;19.93;60.09;100791.22;5001931;28;20050;-45
2022/08/24 10:14:59;;;;;;;2.38;0.57;;;;;;;20.09;60.05;100779.50;5013297;28;20054;-45
2022/08/24 10:29:34;;;;;;;4.72;0.70;;;;;;;23.00;54.52;100762.72;4994813;28;20042;-49
2022/08/24 10:39:50;;;;;;;2.05;0.60;;;;;;;23.03;52.95;100775.19;5005829;28;20497;-49
2022/08/24 10:50:24;;;;;;;0.98;0.75;;;;;;;23.40;51.23;100786.25;5015379;28;20448;-46
2022/08/24 10:53:27;;;;;;;4.45;0.60;;;;;;;22.81;51.21;100790.84;5033240;28;20037;-46
2022/08/24 11:00:00;;;;;;;2.10;0.60;;;;;;;22.13;52.40;100793.84;5033122;28;20033;-45
2022/08/24 11:02:38;;;;;;;6.65;0.63;;;;;;;21.84;52.60;100795.38;5019987;28;20483;-47
2022/08/24 11:05:28;;;;;;;5.13;0.80;;;;;;;21.55;53.11;100792.06;5032830;28;20064;-48
2022/08/24 11:15:46;;;;;;;1.73;0.52;;;;;;;21.20;53.67;100804.50;5029461;28;20376;-46
2022/08/24 11:18:13;;;;;;;1.65;0.73;;;;;;;21.07;53.01;100806.22;5033432;28;20029;-46
2022/08/24 11:20:45;;;;;;;4.78;0.55;;;;;;;20.92;53.29;100801.88;5030894;28;20133;-45
2022/08/24 11:35:38;;;;;;;1.40;0.73;;;;;;;20.65;53.91;100812.16;5028541;28;20048;-48
2022/08/24 11:38:30;;;;;;;3.55;0.90;;;;;;;20.64;53.37;100808.53;5024443;28;20096;-47
2022/08/24 11:41:19;;;;;;;;;;;;;;;20.52;53.44;100805.38;5032170;28;20077;-46
2022/08/24 11:44:09;;;;;;;2.30;0.50;;;;;;;20.56;53.58;100814.59;5030376;28;19967;-51
2022/08/24 11:46:50;;;;;;;3.00;0.70;;;;;;;20.64;53.32;100814.16;5027040;28;20038;-49
2022/08/24 11:49:41;;;;;;;2.45;0.70;;;;;;;20.72;52.93;100808.47;5022500;28;20047;-48
2022/08/24 11:52:28;;;;;;;2.00;0.55;;;;;;;20.70;53.04;100814.53;5018931;28;20052;-47
2022/08/24 11:55:06;;;;;;;3.63;0.80;;;;;;;20.68;53.13;100825.34;5028378;28;20057;-45
2022/08/24 11:57:58;;;;;;;2.80;0.95;;;;;;;20.64;53.16;100827.41;5030020;28;20049;-46
2022/08/24 12:00:31;;;;;;;;;;;;;;;20.63;53.41;100834.25;5030053;28;20041;-45
2022/08/24 12:03:12;;;;;;;2.47;0.82;;;;;;;20.66;53.09;100830.59;5031558;28;19928;-48
2022/08/24 12:06:01;;;;;;;2.58;0.75;;;;;;;20.65;52.16;100826.22;5031777;28;20049;-46
2022/08/24 12:08:56;;;;;;;2.00;0.60;;;;;;;20.65;52.24;100823.41;5030834;28;20080;-44
2022/08/24 12:11:50;;;;;;;1.98;0.77;;;;;;;20.76;52.11;100820.50;5032008;28;20053;-44
2022/08/24 12:14:59;;;;;;;5.65;1.33;;;;;;;20.97;51.76;100815.50;5021993;28;20054;-46
2022/08/24 12:17:32;;;;;;;1.77;0.80;;;;;;;21.05;51.94;100808.59;5024516;28;20116;-46
2022/08/24 12:20:21;;;;;;;1.40;0.77;;;;;;;21.13;51.85;100813.00;5034125;28;20056;-46
2022/08/24 12:22:52;;;;;;;1.27;0.50;;;;;;;21.20;51.69;100824.22;5033074;28;20049;-50
2022/08/24 12:29:08;;;;;;;1.23;0.57;;;;;;;21.44;50.61;100828.00;5033682;28;20034;-49
2022/08/24 12:31:43;;;;;;;2.17;0.40;;;;;;;21.54;49.41;100837.56;5034898;28;20553;-46
2022/08/24 12:34:34;;;;;;;3.67;1.05;;;;;;;21.54;48.46;100837.56;5035983;28;20048;-46
2022/08/24 12:37:50;;;;;;;0.90;0.38;;;;;;;21.63;48.94;100843.53;5011389;28;20033;-46
2022/08/24 12:40:38;;;;;;;2.80;0.40;;;;;;;21.66;48.36;100840.66;5027128;28;20059;-47
2022/08/24 12:50:46;;;;;;;1.48;0.60;;;;;;;21.77;48.95;100840.53;5034265;28;20057;-45
2022/08/24 12:53:50;;;;;;;1.75;0.60;;;;;;;21.86;48.61;100852.16;5031780;28;20083;-46
2022/08/24 12:56:25;;;;;;;4.57;2.05;;;;;;;21.97;48.25;100844.38;5034473;28;20041;-46
2022/08/24 13:02:46;;;;;;;2.28;0.50;;;;;;;22.18;47.49;100852.59;5022506;28;20121;-45
2022/08/24 13:09:12;;;;;;;3.40;0.88;;;;;;;22.08;46.95;100842.22;5034017;28;20038;-48
2022/08/24 13:15:59;;;;;;;5.47;0.70;;;;;;;21.66;47.27;100863.19;5035334;28;20044;-46
2022/08/24 13:18:49;;;;;;;3.53;0.77;;;;;;;21.67;47.38;100859.16;5034877;28;20438;-45
2022/08/24 13:21:37;;;;;;;1.23;0.40;;;;;;;21.65;47.11;100866.44;5028406;28;20033;-45
2022/08/24 13:24:29;;;;;;;2.53;0.50;;;;;;;21.66;46.74;100860.38;5033162;28;20037;-46
2022/08/24 13:31:21;;;;;;;0.63;0.43;;;;;;;21.75;47.28;100860.69;5032120;28;20041;-45
2022/08/24 13:42:47;;;;;;;3.80;0.65;;;;;;;21.91;47.00;100873.44;5033346;28;20030;-45
2022/08/24 13:45:42;;;;;;;1.77;0.47;;;;;;;21.83;46.62;100870.69;5025703;28;20040;-43
2022/08/24 13:48:22;;;;;;;2.50;0.80;;;;;;;21.83;46.65;100859.41;5032517;28;20095;-44
2022/08/24 13:50:58;;;;;;;1.25;0.40;;;;;;;21.87;46.34;100873.47;5032083;28;20136;-45
2022/08/24 13:53:47;;;;;;;4.05;0.70;;;;;;;22.00;46.05;100865.31;5030649;28;20034;-44
2022/08/24 13:56:24;;;;;;;1.45;0.68;;;;;;;21.93;45.90;100877.44;5027652;28;20049;-45
2022/08/24 13:59:36;;;;;;;1.83;0.40;;;;;;;21.83;45.61;100873.50;5031798;28;20049;-45
2022/08/24 14:02:15;;;;;;;1.90;0.50;;;;;;;21.83;45.65;100869.88;5031658;28;20049;-47
2022/08/24 14:04:59;;;;;;;0.93;0.40;;;;;;;21.68;46.16;100874.84;5032211;28;20438;-49
2022/08/24 14:07:31;;;;;;;2.40;0.25;;;;;;;21.59;45.98;100879.38;5019679;28;20505;-44
2022/08/24 14:10:07;;;;;;;2.85;0.95;;;;;;;21.52;46.61;100882.25;5031833;28;20049;-47
2022/08/24 14:12:45;;;;;;;1.40;0.45;;;;;;;21.43;46.10;100879.91;5021614;28;20045;-48
2022/08/24 14:15:29;;;;;;;1.10;0.40;;;;;;;21.43;46.08;100881.94;5032261;28;20045;-48
2022/08/24 14:18:08;;;;;;;4.47;0.50;;;;;;;21.43;45.89;100884.75;5032089;28;20084;-45
2022/08/24 14:20:42;;;;;;;2.47;0.50;;;;;;;21.46;46.42;100875.47;5030401;28;20483;-44
2022/08/24 14:23:55;;;;;;;1.90;1.33;;;;;;;21.45;46.52;100879.50;5031627;28;20053;-46
2022/08/24 14:26:38;;;;;;;1.05;0.38;;;;;;;21.40;46.35;100879.94;4998547;28;20549;-49
2022/08/24 14:29:18;;;;;;;1.20;0.32;;;;;;;21.37;46.15;100872.31;5030334;28;20053;-45
2022/08/24 14:32:06;;;;;;;2.53;0.30;;;;;;;21.32;46.58;100879.22;5030469;28;20041;-45
2022/08/24 14:35:14;;;;;;;4.85;0.65;;;;;;;21.33;46.47;100877.19;5030353;28;20053;-46
2022/08/24 14:38:15;;;;;;;4.22;0.40;;;;;;;21.26;46.29;100868.81;5008108;28;20045;-47
2022/08/24 14:41:00;;;;;;;4.30;0.70;;;;;;;21.21;46.59;100873.66;5030598;28;20054;-44
2022/08/24 14:43:42;;;;;;;4.57;1.33;;;;;;;21.18;46.75;100874.47;5031720;28;20080;-45
2022/08/24 14:46:48;;;;;;;1.73;0.30;;;;;;;21.16;46.41;100862.84;5030062;28;20376;-47
2022/08/24 14:49:26;;;;;;;2.78;0.38;;;;;;;21.15;46.51;100864.03;5030519;28;20495;-47
2022/08/24 14:52:30;;;;;;;0.75;0.32;;;;;;;21.17;46.92;100870.09;4992813;28;20038;-45
2022/08/24 14:59:16;;;;;;;2.22;0.40;;;;;;;21.06;47.24;100863.72;4992904;28;20575;-48
2022/08/24 15:02:59;;;;;;;1.38;0.40;;;;;;;20.98;46.89;100864.16;5006015;28;20097;-45
2022/08/24 15:13:43;;;;;;;3.20;0.60;;;;;;;20.85;46.75;100875.09;4990334;28;20046;-48
2022/08/24 15:16:17;;;;;;;1.45;0.30;;;;;;;20.77;46.87;100867.91;4991850;28;20081;-45
2022/08/24 15:18:47;;;;;;;2.42;0.73;;;;;;;20.76;46.52;100860.69;4993246;28;20050;-46
2022/08/24 15:21:22;;;;;;;4.05;0.77;;;;;;;20.76;46.44;100866.31;4992158;28;20077;-46
2022/08/24 15:24:54;;;;;;;2.00;0.40;;;;;;;20.71;46.46;100863.94;5006472;28;20102;-47
2022/08/24 15:27:52;;;;;;;0.90;0.30;;;;;;;20.72;46.39;100878.81;4990644;28;20047;-47
2022/08/24 15:30:26;;;;;;;3.15;0.30;;;;;;;20.68;46.62;100875.22;4990854;28;20396;-51
2022/08/24 15:33:14;;;;;;;2.33;0.40;;;;;;;20.71;46.95;100880.00;4995069;28;20034;-49
2022/08/24 15:35:48;;;;;;;3.80;0.50;;;;;;;20.80;47.16;100878.34;4994402;28;20050;-49
2022/08/24 15:38:32;;;;;;;1.10;0.37;;;;;;;20.93;46.65;100879.47;4991846;28;20501;-48
2022/08/24 15:41:27;;;;;;;2.67;0.50;;;;;;;21.06;46.63;100879.78;4996930;28;20039;-50
2022/08/24 15:44:24;;;;;;;5.03;0.75;;;;;;;21.16;46.59;100878.94;4990827;28;20481;-46
2022/08/24 15:47:01;;;;;;;2.63;0.38;;;;;;;21.27;46.09;100884.47;4995451;28;20070;-47
2022/08/24 15:49:44;;;;;;;1.45;0.40;;;;;;;21.31;46.73;100886.06;5002414;28;20309;-49
2022/08/24 15:52:42;;;;;;;3.33;0.60;;;;;;;21.40;45.71;100872.31;5023537;28;20083;-46
2022/08/24 15:55:35;;;;;;;6.20;1.13;;;;;;;21.58;45.45;100878.56;5033588;28;20049;-47
2022/08/24 15:58:23;;;;;;;4.70;0.50;;;;;;;21.78;45.58;100884.44;5034756;28;20395;-49
2022/08/24 16:04:02;;;;;;;2.05;0.40;;;;;;;22.09;45.04;100863.56;5032991;28;20041;-45
2022/08/24 16:06:32;;;;;;;3.75;0.30;;;;;;;22.19;44.55;100867.47;5035534;28;20041;-47
2022/08/24 16:09:08;;;;;;;3.90;0.63;;;;;;;22.25;44.20;100855.31;5017335;28;20499;-48
2022/08/24 16:11:41;;;;;;;10.38;1.25;;;;;;;22.39;44.27;100859.97;5032386;28;20053;-49
2022/08/24 16:14:38;;;;;;;1.27;0.35;;;;;;;22.57;43.65;100862.56;5033921;28;20045;-45